Time;durP1;ratioP1;P1;durP2;ratioP2;P2;SDS_P1;SDS_P2;PMS_P1;PMS_P2;Temp;Humidity;BMP_temperature;BMP_pressure;BME280_temperature;BME280_humidity;BME280_pressure;Samples;Min_cycle;Max_cycle;Signal;HPM_P1;HPM_P2
2023/05/27 00:01:19;;;;;;;5.45;1.48;;;;;;;8.65;100.00;102250.22;5038724;28;20033;-57
2023/05/27 00:03:45;;;;;;;11.18;3.30;;;;;;;8.57;100.00;102257.97;5038641;28;20033;-54
2023/05/27 00:06:11;;;;;;;8.02;1.83;;;;;;;8.53;100.00;102252.13;5034435;28;20753;-58
2023/05/27 00:08:36;;;;;;;7.38;0.93;;;;;;;8.45;100.00;102259.91;5036994;28;20033;-58
2023/05/27 00:11:01;;;;;;;6.93;2.65;;;;;;;8.36;100.00;102260.66;5038375;28;20060;-55
2023/05/27 00:13:27;;;;;;;6.07;1.17;;;;;;;8.24;100.00;102257.28;5041124;28;20119;-55
2023/05/27 00:15:52;;;;;;;5.38;1.42;;;;;;;8.27;100.00;102251.72;5041188;28;20394;-57
2023/05/27 00:18:17;;;;;;;7.53;1.42;;;;;;;8.20;100.00;102259.34;5039014;28;20123;-52
2023/05/27 00:20:43;;;;;;;6.07;1.58;;;;;;;7.85;100.00;102257.91;5050720;28;20032;-55
2023/05/27 00:23:09;;;;;;;8.23;1.40;;;;;;;7.96;100.00;102254.34;5042436;28;20024;-58
2023/05/27 00:25:34;;;;;;;13.68;2.42;;;;;;;7.91;100.00;102259.19;5045700;28;20032;-58
2023/05/27 00:27:59;;;;;;;8.73;1.95;;;;;;;7.80;100.00;102254.00;5049680;28;20599;-57
2023/05/27 00:30:25;;;;;;;6.78;2.03;;;;;;;7.65;100.00;102248.19;5040774;28;20393;-53
2023/05/27 00:32:50;;;;;;;13.30;3.50;;;;;;;7.54;100.00;102250.91;5054124;28;20120;-53
2023/05/27 00:35:16;;;;;;;15.82;2.42;;;;;;;7.42;100.00;102244.81;5042707;28;20025;-56
2023/05/27 00:37:41;;;;;;;15.35;1.88;;;;;;;7.41;100.00;102240.53;5045817;28;20119;-53
2023/05/27 00:40:10;;;;;;;6.00;2.05;;;;;;;7.27;100.00;102244.28;5045784;28;20144;-55
2023/05/27 00:42:36;;;;;;;4.47;1.42;;;;;;;7.15;100.00;102243.50;5041045;28;20057;-55
2023/05/27 00:45:02;;;;;;;8.40;1.83;;;;;;;7.12;100.00;102238.47;5042756;28;20114;-54
2023/05/27 00:47:31;;;;;;;8.45;1.85;;;;;;;7.07;100.00;102250.34;5043879;28;20374;-53
2023/05/27 00:49:56;;;;;;;4.88;2.20;;;;;;;7.09;100.00;102238.72;5041304;28;20021;-55
2023/05/27 00:52:22;;;;;;;4.90;1.00;;;;;;;7.03;100.00;102233.13;5045278;28;20037;-54
2023/05/27 00:54:48;;;;;;;5.45;1.13;;;;;;;7.01;100.00;102230.59;5040641;28;20409;-55
2023/05/27 00:57:13;;;;;;;12.02;2.08;;;;;;;6.97;100.00;102226.53;5043817;28;20037;-57
2023/05/27 00:59:38;;;;;;;7.05;0.95;;;;;;;6.89;100.00;102228.94;5040866;28;20444;-55
2023/05/27 01:02:05;;;;;;;6.93;1.02;;;;;;;6.78;100.00;102225.38;5045183;28;20582;-51
2023/05/27 01:04:30;;;;;;;7.55;2.85;;;;;;;6.77;100.00;102234.25;5043061;28;20041;-53
2023/05/27 01:07:08;;;;;;;8.35;1.67;;;;;;;6.82;100.00;102230.41;5040649;28;20400;-54
2023/05/27 01:09:52;;;;;;;15.70;1.98;;;;;;;6.87;100.00;102222.97;5044292;28;21794;-53
2023/05/27 01:12:36;;;;;;;8.75;1.30;;;;;;;6.85;100.00;102228.38;5040373;28;20040;-56
2023/05/27 01:15:04;;;;;;;7.50;0.70;;;;;;;6.83;100.00;102227.66;5044437;28;20131;-55
2023/05/27 01:17:31;;;;;;;8.98;1.70;;;;;;;6.89;100.00;102221.91;5038424;28;20029;-52
2023/05/27 01:19:59;;;;;;;4.90;2.35;;;;;;;6.98;100.00;102225.56;5045631;28;20032;-50
2023/05/27 01:22:31;;;;;;;3.30;1.90;;;;;;;6.88;100.00;102212.28;5039901;28;20025;-52
2023/05/27 01:24:57;;;;;;;13.23;1.75;;;;;;;6.93;100.00;102217.19;5042617;28;20041;-52
2023/05/27 01:27:26;;;;;;;7.45;2.38;;;;;;;6.95;100.00;102221.38;5037376;28;20036;-55
2023/05/27 01:29:53;;;;;;;9.63;1.90;;;;;;;6.87;100.00;102217.72;5042781;28;20044;-52
2023/05/27 01:32:41;;;;;;;10.10;2.45;;;;;;;6.95;100.00;102212.63;5039432;28;20028;-51
2023/05/27 01:35:21;;;;;;;13.38;2.08;;;;;;;7.09;100.00;102214.13;5040496;28;20060;-53
2023/05/27 01:37:50;;;;;;;2.60;1.55;;;;;;;7.06;100.00;102202.03;5042070;28;20024;-57
2023/05/27 01:40:16;;;;;;;3.00;1.75;;;;;;;7.02;100.00;102200.59;5041254;28;20044;-53
2023/05/27 01:42:43;;;;;;;8.25;1.45;;;;;;;7.02;100.00;102199.78;5040047;28;20053;-53
2023/05/27 01:45:09;;;;;;;17.73;1.20;;;;;;;6.96;100.00;102194.03;5022707;28;20401;-54
2023/05/27 01:47:35;;;;;;;2.75;0.88;;;;;;;6.90;100.00;102193.72;5041995;28;20029;-55
2023/05/27 01:50:01;;;;;;;16.05;4.47;;;;;;;6.84;100.00;102188.94;5035799;28;20035;-53
2023/05/27 01:52:26;;;;;;;1.90;0.82;;;;;;;6.72;100.00;102199.50;5037260;28;20128;-56
2023/05/27 01:54:52;;;;;;;5.75;0.75;;;;;;;6.66;100.00;102191.25;5037052;28;20066;-53
2023/05/27 01:57:18;;;;;;;8.63;2.67;;;;;;;6.63;100.00;102196.78;5036415;28;20540;-55
2023/05/27 01:59:43;;;;;;;5.03;1.33;;;;;;;6.62;100.00;102187.19;5027775;28;20588;-56
2023/05/27 02:02:08;;;;;;;7.35;2.67;;;;;;;6.58;100.00;102194.50;5031223;28;20529;-57
2023/05/27 02:04:34;;;;;;;7.13;1.08;;;;;;;6.56;100.00;102199.06;5022847;28;20693;-54
2023/05/27 02:07:00;;;;;;;7.30;1.25;;;;;;;6.56;100.00;102201.72;5026143;28;20033;-55
2023/05/27 02:09:25;;;;;;;9.98;1.55;;;;;;;6.50;100.00;102197.75;5026271;28;20099;-54
2023/05/27 02:11:50;;;;;;;4.45;1.85;;;;;;;6.42;100.00;102197.53;5007460;28;20033;-50
2023/05/27 02:14:16;;;;;;;8.48;3.50;;;;;;;6.37;100.00;102190.94;5023782;28;20561;-54
2023/05/27 02:16:42;;;;;;;12.55;1.10;;;;;;;6.36;100.00;102197.19;5022284;28;20028;-53
2023/05/27 02:19:07;;;;;;;3.30;0.57;;;;;;;6.32;100.00;102197.44;5022945;28;20034;-54
2023/05/27 02:21:33;;;;;;;10.43;2.00;;;;;;;6.30;100.00;102193.25;5008918;28;20083;-55
2023/05/27 02:23:58;;;;;;;6.65;1.00;;;;;;;6.24;100.00;102185.81;5025258;28;20472;-51
2023/05/27 02:26:24;;;;;;;6.68;1.98;;;;;;;6.21;100.00;102197.44;5023078;28;20233;-56
2023/05/27 02:28:50;;;;;;;3.97;1.30;;;;;;;6.18;100.00;102197.66;5018695;28;20776;-55
2023/05/27 02:31:16;;;;;;;13.80;2.63;;;;;;;6.14;100.00;102188.31;5030798;28;20021;-53
2023/05/27 02:33:41;;;;;;;4.75;1.60;;;;;;;6.05;100.00;102183.78;5021611;28;20040;-53
2023/05/27 02:36:06;;;;;;;10.57;1.73;;;;;;;6.04;100.00;102187.38;5026800;28;20024;-55
2023/05/27 02:38:32;;;;;;;8.48;1.92;;;;;;;6.05;100.00;102179.34;5024697;28;20571;-56
2023/05/27 02:40:57;;;;;;;9.70;2.40;;;;;;;6.05;100.00;102171.47;5023459;28;20033;-55
2023/05/27 02:43:23;;;;;;;9.85;0.90;;;;;;;6.09;100.00;102177.31;5028830;28;20048;-53
2023/05/27 02:45:48;;;;;;;10.13;1.42;;;;;;;6.14;100.00;102169.88;5030246;28;20123;-53
2023/05/27 02:48:13;;;;;;;5.90;0.80;;;;;;;6.19;100.00;102174.78;5025509;28;20111;-52
2023/05/27 02:50:39;;;;;;;7.95;1.35;;;;;;;6.17;100.00;102180.22;5033269;28;20028;-52
2023/05/27 02:53:04;;;;;;;10.82;2.92;;;;;;;6.10;100.00;102181.63;5026771;28;20530;-56
2023/05/27 02:55:29;;;;;;;9.30;2.40;;;;;;;6.11;100.00;102168.34;5031054;28;20029;-55
2023/05/27 02:57:55;;;;;;;7.35;1.05;;;;;;;6.06;100.00;102174.91;5028227;28;20037;-53
2023/05/27 03:00:21;;;;;;;2.90;2.08;;;;;;;6.04;100.00;102174.19;5031761;28;20025;-54
2023/05/27 03:02:47;;;;;;;4.65;1.67;;;;;;;5.96;100.00;102172.16;5033586;28;20036;-57
2023/05/27 03:05:13;;;;;;;3.47;0.93;;;;;;;5.93;100.00;102169.75;5026296;28;20461;-52
2023/05/27 03:07:39;;;;;;;10.20;1.08;;;;;;;5.89;100.00;102166.53;5028852;28;20029;-54
2023/05/27 03:10:05;;;;;;;3.17;1.38;;;;;;;5.87;100.00;102165.78;5006863;28;20033;-52
2023/05/27 03:12:31;;;;;;;3.75;1.20;;;;;;;5.83;100.00;102163.50;5027821;28;20044;-52
2023/05/27 03:14:56;;;;;;;9.32;1.45;;;;;;;5.76;100.00;102170.22;5024409;28;20420;-52
2023/05/27 03:17:21;;;;;;;7.55;1.17;;;;;;;5.68;100.00;102169.03;5023981;28;20033;-53
2023/05/27 03:19:46;;;;;;;9.05;1.55;;;;;;;5.66;100.00;102167.47;5011793;28;20116;-57
2023/05/27 03:22:12;;;;;;;6.05;1.05;;;;;;;5.63;100.00;102165.06;5027958;28;20544;-54
2023/05/27 03:24:37;;;;;;;5.63;1.98;;;;;;;5.61;100.00;102172.25;5033041;28;20060;-50
2023/05/27 03:27:03;;;;;;;12.18;2.05;;;;;;;5.66;100.00;102173.56;5038288;28;20102;-52
2023/05/27 03:29:29;;;;;;;10.98;2.05;;;;;;;5.67;100.00;102171.75;5017414;28;20100;-56
2023/05/27 03:31:54;;;;;;;9.32;1.73;;;;;;;5.71;100.00;102175.84;5033504;28;20067;-54
2023/05/27 03:34:19;;;;;;;2.38;1.20;;;;;;;5.69;100.00;102177.75;5040809;28;22284;-53
2023/05/27 03:36:46;;;;;;;7.28;2.95;;;;;;;5.77;100.00;102169.25;5036696;28;20021;-50
2023/05/27 03:39:12;;;;;;;10.32;1.88;;;;;;;5.77;100.00;102175.34;5021738;28;20044;-51
2023/05/27 03:41:37;;;;;;;7.25;1.60;;;;;;;5.85;100.00;102177.41;5043096;28;20037;-53
2023/05/27 03:44:03;;;;;;;12.73;1.10;;;;;;;5.94;100.00;102175.88;5041665;28;20060;-56
2023/05/27 03:46:28;;;;;;;5.82;2.45;;;;;;;6.09;100.00;102175.53;5040313;28;20064;-52
2023/05/27 03:48:54;;;;;;;5.55;1.63;;;;;;;6.24;100.00;102178.75;5036494;28;20017;-52
2023/05/27 03:51:20;;;;;;;9.13;2.22;;;;;;;6.38;100.00;102174.19;5036095;28;20029;-55
2023/05/27 03:53:45;;;;;;;9.02;2.17;;;;;;;6.51;100.00;102177.53;5041454;28;20037;-53
2023/05/27 03:56:11;;;;;;;5.32;2.33;;;;;;;6.85;100.00;102169.53;5036340;28;20044;-53
2023/05/27 03:58:36;;;;;;;14.18;2.25;;;;;;;7.08;100.00;102178.19;5037617;28;20103;-51
2023/05/27 04:01:01;;;;;;;3.88;1.88;;;;;;;7.32;100.00;102180.56;5038572;28;20033;-54
2023/05/27 04:03:28;;;;;;;12.35;3.17;;;;;;;7.47;100.00;102181.94;5048320;28;20116;-52
2023/05/27 04:05:53;;;;;;;18.45;5.50;;;;;;;7.75;100.00;102183.06;5045482;28;20037;-52
2023/05/27 04:08:18;;;;;;;15.70;4.88;;;;;;;7.97;100.00;102186.50;5048785;28;20025;-51
2023/05/27 04:10:44;;;;;;;17.00;3.67;;;;;;;8.11;100.00;102185.34;5051456;28;20025;-54
2023/05/27 04:13:09;;;;;;;10.55;2.95;;;;;;;8.19;100.00;102180.22;5042116;28;20070;-52
2023/05/27 04:15:34;;;;;;;8.02;1.77;;;;;;;8.32;100.00;102175.53;5044926;28;20036;-54
2023/05/27 04:18:01;;;;;;;16.15;3.72;;;;;;;8.47;100.00;102182.13;5051023;28;20093;-50
2023/05/27 04:20:33;;;;;;;8.60;2.80;;;;;;;8.59;100.00;102174.91;5045884;28;20025;-55
2023/05/27 04:22:59;;;;;;;11.40;2.88;;;;;;;8.62;100.00;102177.31;5046687;28;20376;-53
2023/05/27 04:25:24;;;;;;;13.30;3.25;;;;;;;8.62;100.00;102177.31;5045160;28;20035;-54
2023/05/27 04:27:50;;;;;;;9.98;2.67;;;;;;;8.66;100.00;102167.28;5040552;28;20061;-53
2023/05/27 04:30:15;;;;;;;9.32;3.00;;;;;;;8.67;100.00;102168.94;5021854;28;20025;-51
2023/05/27 04:32:40;;;;;;;15.82;3.55;;;;;;;8.69;100.00;102172.28;5049358;28;20504;-53
2023/05/27 04:35:10;;;;;;;22.23;4.93;;;;;;;8.70;100.00;102163.41;5045540;28;20484;-55
2023/05/27 04:37:36;;;;;;;12.80;3.03;;;;;;;8.74;100.00;102164.78;5046345;28;20018;-51
2023/05/27 04:40:07;;;;;;;14.55;4.88;;;;;;;8.72;100.00;102161.44;5044236;28;20017;-53
2023/05/27 04:42:33;;;;;;;23.02;5.60;;;;;;;8.73;100.00;102163.94;5042835;28;20041;-51
2023/05/27 04:44:59;;;;;;;19.95;3.45;;;;;;;8.74;100.00;102160.31;5043017;28;20041;-53
2023/05/27 04:47:25;;;;;;;13.63;3.33;;;;;;;8.74;100.00;102148.91;5041400;28;20032;-55
2023/05/27 04:49:51;;;;;;;18.60;3.35;;;;;;;8.79;100.00;102162.56;5047253;28;20025;-52
2023/05/27 04:52:21;;;;;;;14.35;2.85;;;;;;;8.78;100.00;102158.25;5048938;28;20032;-55
2023/05/27 04:54:46;;;;;;;13.75;2.67;;;;;;;8.73;100.00;102156.00;5045240;28;20025;-56
2023/05/27 04:57:11;;;;;;;14.23;3.05;;;;;;;8.75;100.00;102155.84;5055578;28;20408;-57
2023/05/27 05:02:22;;;;;;;13.13;3.67;;;;;;;8.72;100.00;102157.00;5049762;28;20504;-54
2023/05/27 05:04:47;;;;;;;15.68;3.97;;;;;;;8.80;100.00;102153.63;5043017;28;20052;-53
2023/05/27 05:07:13;;;;;;;13.43;3.50;;;;;;;8.89;100.00;102163.41;5047535;28;21330;-53
2023/05/27 05:09:39;;;;;;;16.50;3.55;;;;;;;8.95;100.00;102157.53;5042296;28;20068;-52
2023/05/27 05:12:06;;;;;;;15.10;4.97;;;;;;;8.97;100.00;102162.69;5044354;28;20035;-57
2023/05/27 05:14:31;;;;;;;8.73;2.55;;;;;;;9.01;100.00;102172.03;5043964;28;20025;-53
2023/05/27 05:16:56;;;;;;;11.55;2.38;;;;;;;8.97;100.00;102164.53;5043306;28;20039;-53
2023/05/27 05:19:22;;;;;;;8.43;2.15;;;;;;;9.03;100.00;102162.13;5047388;28;20025;-53
2023/05/27 05:21:47;;;;;;;22.13;3.53;;;;;;;9.11;100.00;102161.44;5044212;28;20040;-54
2023/05/27 05:24:12;;;;;;;7.88;1.98;;;;;;;9.16;100.00;102160.06;5044399;28;20033;-54
2023/05/27 05:26:38;;;;;;;5.47;1.75;;;;;;;9.15;100.00;102158.38;5038153;28;20111;-57
2023/05/27 05:29:03;;;;;;;14.75;2.08;;;;;;;9.15;100.00;102165.47;5042374;28;20091;-54
2023/05/27 05:31:28;;;;;;;11.70;2.05;;;;;;;9.24;100.00;102159.34;5041772;28;20029;-57
2023/05/27 05:33:54;;;;;;;14.52;4.30;;;;;;;9.35;100.00;102164.47;5043324;28;20028;-56
2023/05/27 05:36:20;;;;;;;7.78;2.40;;;;;;;9.38;100.00;102164.19;5027911;28;20685;-55
2023/05/27 05:38:46;;;;;;;8.00;3.53;;;;;;;9.44;100.00;102161.97;5046482;28;20021;-54
2023/05/27 05:41:11;;;;;;;15.20;3.10;;;;;;;9.52;100.00;102164.72;5036543;28;20486;-55
2023/05/27 05:43:37;;;;;;;8.10;1.98;;;;;;;9.63;100.00;102169.00;5045752;28;20044;-55
2023/05/27 05:46:02;;;;;;;8.25;2.63;;;;;;;9.88;100.00;102170.19;5032309;28;20487;-58
2023/05/27 05:48:27;;;;;;;10.02;1.55;;;;;;;10.08;100.00;102170.97;5042406;28;20059;-54
2023/05/27 05:50:53;;;;;;;11.70;4.25;;;;;;;10.19;100.00;102163.63;5035685;28;20067;-56
2023/05/27 05:53:18;;;;;;;7.80;2.42;;;;;;;10.36;100.00;102172.66;5037031;28;20115;-57
2023/05/27 05:55:43;;;;;;;12.50;3.65;;;;;;;10.57;100.00;102171.56;5043319;28;20033;-56
2023/05/27 05:58:09;;;;;;;11.85;2.13;;;;;;;10.62;100.00;102164.00;5038519;28;20099;-55
2023/05/27 06:00:35;;;;;;;14.43;4.10;;;;;;;10.68;100.00;102168.69;5038932;28;20048;-58
2023/05/27 06:03:00;;;;;;;17.67;4.15;;;;;;;10.82;100.00;102157.56;5039440;28;20072;-57
2023/05/27 06:05:27;;;;;;;12.70;2.08;;;;;;;11.00;100.00;102151.41;5044753;28;20132;-61
2023/05/27 06:07:53;;;;;;;4.60;1.95;;;;;;;11.18;100.00;102154.03;5037458;28;20045;-56
2023/05/27 06:10:19;;;;;;;9.27;2.60;;;;;;;11.28;100.00;102144.16;5031362;28;20029;-58
2023/05/27 06:12:44;;;;;;;8.15;1.58;;;;;;;11.40;100.00;102148.22;5036459;28;20111;-57
2023/05/27 06:15:10;;;;;;;5.88;2.55;;;;;;;11.49;100.00;102136.69;5038126;28;20315;-56
2023/05/27 06:17:35;;;;;;;9.25;1.83;;;;;;;11.62;100.00;102141.56;5045274;28;20122;-58
2023/05/27 06:20:01;;;;;;;24.15;2.20;;;;;;;11.66;100.00;102134.09;5044431;28;20057;-59
2023/05/27 06:22:26;;;;;;;14.45;3.03;;;;;;;11.72;100.00;102141.44;5045322;28;20421;-56
2023/05/27 06:24:51;;;;;;;9.20;2.38;;;;;;;11.92;100.00;102150.03;5043064;28;20055;-53
2023/05/27 06:27:17;;;;;;;10.52;2.42;;;;;;;12.01;100.00;102133.16;5038638;28;20034;-56
2023/05/27 06:29:44;;;;;;;14.35;2.60;;;;;;;12.06;100.00;102138.00;5038201;28;20040;-58
2023/05/27 06:32:09;;;;;;;9.38;1.50;;;;;;;12.02;100.00;102133.97;5040554;28;20139;-56
2023/05/27 06:34:34;;;;;;;6.88;2.13;;;;;;;12.00;100.00;102129.66;5038923;28;20477;-60
2023/05/27 06:37:00;;;;;;;20.23;3.30;;;;;;;11.95;100.00;102128.44;5040724;28;20029;-58
2023/05/27 06:39:25;;;;;;;8.38;2.58;;;;;;;11.91;100.00;102119.97;5032663;28;20033;-60
2023/05/27 06:41:50;;;;;;;11.27;3.33;;;;;;;11.89;100.00;102116.63;5042453;28;20562;-58
2023/05/27 06:44:16;;;;;;;6.82;1.55;;;;;;;11.93;100.00;102115.34;5044758;28;20053;-59
2023/05/27 06:46:41;;;;;;;7.93;2.42;;;;;;;12.02;100.00;102115.38;5037439;28;20547;-61
2023/05/27 06:49:06;;;;;;;10.70;1.35;;;;;;;12.00;100.00;102105.75;5044782;28;20501;-57
2023/05/27 06:51:32;;;;;;;13.70;2.55;;;;;;;11.93;100.00;102091.41;5037557;28;20052;-58
2023/05/27 06:53:57;;;;;;;10.15;1.63;;;;;;;12.08;100.00;102096.97;5044590;28;20091;-57
2023/05/27 06:56:22;;;;;;;1.35;0.95;;;;;;;12.15;100.00;102097.13;5037787;28;20049;-54
2023/05/27 06:58:48;;;;;;;5.65;1.38;;;;;;;12.12;100.00;102092.13;5041070;28;20083;-59
2023/05/27 07:01:13;;;;;;;20.23;3.25;;;;;;;12.08;100.00;102088.97;5040878;28;20037;-55
2023/05/27 07:03:41;;;;;;;11.63;2.17;;;;;;;12.18;100.00;102089.69;5044074;28;20032;-59
2023/05/27 07:06:06;;;;;;;9.55;2.42;;;;;;;12.16;100.00;102085.50;5043721;28;20052;-59
2023/05/27 07:08:31;;;;;;;8.98;1.63;;;;;;;12.22;100.00;102082.19;5037076;28;20442;-58
2023/05/27 07:10:57;;;;;;;7.30;1.50;;;;;;;12.32;100.00;102074.91;5042924;28;20028;-56
2023/05/27 07:13:22;;;;;;;11.25;2.17;;;;;;;12.27;100.00;102068.41;5041891;28;20385;-57
2023/05/27 07:15:48;;;;;;;8.15;3.08;;;;;;;12.32;100.00;102066.91;5039822;28;20070;-59
2023/05/27 07:18:13;;;;;;;9.77;2.20;;;;;;;12.47;100.00;102060.94;5029005;28;20041;-61
2023/05/27 07:20:39;;;;;;;17.30;2.63;;;;;;;12.61;100.00;102066.44;5040361;28;20029;-59
2023/05/27 07:23:05;;;;;;;8.02;1.33;;;;;;;12.81;100.00;102058.16;5038015;28;20033;-59
2023/05/27 07:25:30;;;;;;;7.57;1.08;;;;;;;12.97;100.00;102052.78;5041163;28;20032;-57
2023/05/27 07:27:56;;;;;;;9.55;2.10;;;;;;;13.09;100.00;102061.28;5043208;28;20111;-58
2023/05/27 07:30:21;;;;;;;9.43;1.13;;;;;;;13.15;100.00;102055.25;5038700;28;20047;-60
2023/05/27 07:32:46;;;;;;;8.13;2.50;;;;;;;13.21;100.00;102062.56;5040373;28;20033;-63
2023/05/27 07:35:12;;;;;;;8.05;1.63;;;;;;;13.17;100.00;102057.78;5040338;28;20144;-59
2023/05/27 07:37:37;;;;;;;11.23;1.67;;;;;;;13.16;100.00;102050.75;5044962;28;20537;-60
2023/05/27 07:40:03;;;;;;;21.77;3.50;;;;;;;13.16;100.00;102051.59;5041158;28;20075;-59
2023/05/27 07:42:29;;;;;;;8.27;1.67;;;;;;;13.19;100.00;102055.75;5036639;28;20103;-54
2023/05/27 07:44:55;;;;;;;9.98;1.27;;;;;;;13.24;100.00;102040.94;5038367;28;20512;-56
2023/05/27 07:47:20;;;;;;;13.45;1.92;;;;;;;13.36;100.00;102033.44;5039190;28;20477;-58
2023/05/27 07:49:46;;;;;;;14.65;1.95;;;;;;;13.30;100.00;102032.28;5042357;28;20040;-57
2023/05/27 07:52:11;;;;;;;7.15;2.03;;;;;;;13.49;100.00;102043.53;5042769;28;20057;-58
2023/05/27 07:54:36;;;;;;;5.63;1.73;;;;;;;13.71;100.00;102044.63;5036068;28;20029;-58
2023/05/27 07:57:02;;;;;;;5.00;1.38;;;;;;;14.05;100.00;102036.28;5036151;28;20021;-62
2023/05/27 07:59:27;;;;;;;10.77;1.27;;;;;;;14.22;100.00;102026.31;5040313;28;20025;-56
2023/05/27 08:01:52;;;;;;;10.95;2.05;;;;;;;14.11;100.00;102024.91;5040450;28;20032;-59
2023/05/27 08:04:18;;;;;;;7.03;2.08;;;;;;;14.18;100.00;102023.19;5040839;28;20359;-56
2023/05/27 08:06:43;;;;;;;10.27;2.28;;;;;;;14.14;100.00;102019.19;5042347;28;20055;-59
2023/05/27 08:09:08;;;;;;;9.68;1.23;;;;;;;14.31;100.00;102013.78;5035472;28;20106;-56
2023/05/27 08:11:34;;;;;;;9.88;2.38;;;;;;;14.53;100.00;102010.31;5037771;28;20017;-60
2023/05/27 08:13:59;;;;;;;7.82;1.90;;;;;;;14.76;100.00;102009.41;5038911;28;20452;-59
2023/05/27 08:16:24;;;;;;;5.60;0.82;;;;;;;14.70;100.00;102010.16;5035426;28;20169;-58
2023/05/27 08:18:50;;;;;;;7.68;1.48;;;;;;;14.81;100.00;102007.03;5039645;28;20041;-55
2023/05/27 08:21:16;;;;;;;5.07;1.25;;;;;;;14.78;100.00;102002.88;5035206;28;20026;-63
2023/05/27 08:23:41;;;;;;;10.73;1.80;;;;;;;14.72;100.00;102000.13;5040692;28;20028;-60
2023/05/27 08:26:07;;;;;;;11.55;1.15;;;;;;;14.76;100.00;102004.06;5036950;28;20020;-60
2023/05/27 08:28:36;;;;;;;7.60;2.10;;;;;;;14.82;100.00;102000.69;5032697;28;20166;-55
2023/05/27 08:31:03;;;;;;;6.25;1.35;;;;;;;14.78;100.00;101996.72;5040938;28;20109;-64
2023/05/27 08:33:29;;;;;;;11.77;2.20;;;;;;;15.01;100.00;101999.31;5026639;28;20056;-59
2023/05/27 08:35:55;;;;;;;4.65;1.10;;;;;;;15.12;100.00;102000.69;5038867;28;20159;-52
2023/05/27 08:38:20;;;;;;;8.35;2.92;;;;;;;15.31;100.00;101999.31;5019807;28;20078;-59
2023/05/27 08:40:46;;;;;;;4.40;1.63;;;;;;;15.58;100.00;101995.16;5036797;28;20037;-55
2023/05/27 08:43:12;;;;;;;4.25;1.52;;;;;;;15.62;100.00;101991.91;5036363;28;20045;-59
2023/05/27 08:45:40;;;;;;;5.30;1.70;;;;;;;15.79;100.00;101991.72;5039198;28;20033;-58
2023/05/27 08:48:08;;;;;;;3.47;1.27;;;;;;;15.83;100.00;101988.47;5037463;28;20036;-59
2023/05/27 08:50:33;;;;;;;6.63;1.60;;;;;;;16.02;100.00;101976.31;5047297;28;20029;-57
2023/05/27 08:53:00;;;;;;;5.30;1.40;;;;;;;16.07;100.00;101976.56;5035868;28;20385;-57
2023/05/27 08:55:27;;;;;;;6.95;2.28;;;;;;;16.03;100.00;101977.13;5036589;28;20068;-57
2023/05/27 08:57:57;;;;;;;8.35;1.77;;;;;;;16.20;100.00;101969.69;5041599;28;20032;-58
2023/05/27 09:00:25;;;;;;;9.82;0.98;;;;;;;16.48;100.00;101975.91;5039018;28;20029;-57
2023/05/27 09:02:50;;;;;;;2.58;1.08;;;;;;;16.57;100.00;101976.59;5036805;28;20493;-57
2023/05/27 09:05:17;;;;;;;10.30;1.90;;;;;;;16.61;100.00;101972.50;5041615;28;20424;-57
2023/05/27 09:07:43;;;;;;;4.32;1.45;;;;;;;16.33;100.00;101972.50;5022650;28;20052;-55
2023/05/27 09:10:09;;;;;;;8.40;2.00;;;;;;;16.29;100.00;101966.69;5038072;28;20478;-61
2023/05/27 09:12:35;;;;;;;12.27;1.48;;;;;;;16.71;100.00;101967.66;5043356;28;20044;-58
2023/05/27 09:15:03;;;;;;;8.07;1.77;;;;;;;16.73;100.00;101960.25;5040002;28;20029;-57
2023/05/27 09:17:29;;;;;;;8.35;2.10;;;;;;;16.57;100.00;101955.16;5031431;28;20044;-58
2023/05/27 09:19:54;;;;;;;5.63;1.50;;;;;;;16.28;100.00;101954.31;5034150;28;20065;-58
2023/05/27 09:22:22;;;;;;;8.95;2.50;;;;;;;16.39;100.00;101954.81;5037931;28;20029;-52
2023/05/27 09:24:48;;;;;;;11.63;2.30;;;;;;;16.51;100.00;101953.28;5039040;28;20029;-58
2023/05/27 09:27:14;;;;;;;8.00;1.38;;;;;;;16.76;100.00;101948.31;5033046;28;20044;-64
2023/05/27 09:29:40;;;;;;;4.65;1.05;;;;;;;17.18;100.00;101941.97;5036957;28;20116;-55
2023/05/27 09:32:07;;;;;;;7.60;1.27;;;;;;;17.31;100.00;101943.06;5029995;28;20037;-57
2023/05/27 09:34:38;;;;;;;14.52;2.20;;;;;;;17.51;100.00;101929.72;5020584;28;20071;-59
2023/05/27 09:37:04;;;;;;;8.27;1.25;;;;;;;17.75;100.00;101929.16;5042395;28;20060;-60
2023/05/27 09:39:29;;;;;;;13.13;2.20;;;;;;;17.70;100.00;101928.13;5040352;28;20036;-60
2023/05/27 09:41:55;;;;;;;5.38;1.10;;;;;;;17.58;100.00;101923.38;5042231;28;20071;-59
2023/05/27 09:44:27;;;;;;;9.85;2.22;;;;;;;17.80;100.00;101918.69;5029455;28;20128;-57
2023/05/27 09:46:53;;;;;;;9.93;1.98;;;;;;;17.59;100.00;101918.81;5033099;28;20029;-60
2023/05/27 09:49:20;;;;;;;14.40;2.88;;;;;;;17.93;100.00;101922.41;5038642;28;20215;-64
2023/05/27 09:51:46;;;;;;;6.32;1.67;;;;;;;18.24;100.00;101911.91;5040264;28;20065;-56
2023/05/27 09:54:18;;;;;;;2.92;0.95;;;;;;;18.44;100.00;101911.06;5039050;28;20041;-62
2023/05/27 09:56:45;;;;;;;8.55;1.63;;;;;;;18.52;100.00;101913.53;5038659;28;20032;-57
2023/05/27 09:59:11;;;;;;;7.22;2.10;;;;;;;18.42;100.00;101908.56;5040127;28;20037;-60
2023/05/27 10:01:38;;;;;;;7.07;2.35;;;;;;;18.45;100.00;101907.34;5041053;28;20040;-59
2023/05/27 10:04:04;;;;;;;10.68;2.20;;;;;;;18.69;100.00;101898.63;5038901;28;20040;-59
2023/05/27 10:06:32;;;;;;;8.82;1.90;;;;;;;18.71;100.00;101901.09;5042134;28;20024;-55
2023/05/27 10:08:57;;;;;;;6.65;1.63;;;;;;;18.70;100.00;101902.13;5039691;28;20036;-62
2023/05/27 10:11:23;;;;;;;3.92;1.40;;;;;;;19.01;100.00;101892.56;5041811;28;20044;-60
2023/05/27 10:13:50;;;;;;;5.97;2.17;;;;;;;18.83;100.00;101888.69;5036073;28;20579;-59
2023/05/27 10:16:23;;;;;;;9.95;1.58;;;;;;;18.91;100.00;101891.13;5038670;28;20027;-58
2023/05/27 10:18:53;;;;;;;6.65;1.98;;;;;;;19.24;100.00;101887.50;5033190;28;20035;-53
2023/05/27 10:21:20;;;;;;;10.05;1.83;;;;;;;19.30;100.00;101883.94;5033140;28;20033;-59
2023/05/27 10:23:56;;;;;;;6.35;3.13;;;;;;;19.15;100.00;101886.94;5034957;28;20056;-52
2023/05/27 10:26:42;;;;;;;7.03;2.58;;;;;;;19.47;100.00;101886.13;5036289;28;20491;-56
2023/05/27 10:29:10;;;;;;;5.63;2.25;;;;;;;19.74;100.00;101884.13;5037876;28;20362;-58
2023/05/27 10:31:43;;;;;;;6.20;1.42;;;;;;;19.97;100.00;101878.97;5029020;28;20037;-56
2023/05/27 10:34:08;;;;;;;6.47;1.50;;;;;;;19.98;100.00;101877.94;5038089;28;20048;-58
2023/05/27 10:36:36;;;;;;;8.07;1.83;;;;;;;20.17;100.00;101865.34;5038887;28;20053;-58
2023/05/27 10:39:05;;;;;;;8.75;2.28;;;;;;;20.46;100.00;101866.50;5037862;28;20078;-58
2023/05/27 10:41:41;;;;;;;15.02;2.35;;;;;;;20.45;100.00;101866.75;5029641;28;20767;-54
2023/05/27 10:44:06;;;;;;;10.40;3.15;;;;;;;20.32;100.00;101853.41;5033753;28;20049;-54
2023/05/27 10:46:43;;;;;;;5.82;2.38;;;;;;;19.71;100.00;101846.88;5039221;28;20029;-57
2023/05/27 10:49:35;;;;;;;17.95;3.80;;;;;;;19.64;100.00;101840.69;5031195;28;20485;-59
2023/05/27 10:52:10;;;;;;;14.93;2.97;;;;;;;19.98;100.00;101842.09;5032044;28;20041;-53
2023/05/27 10:54:36;;;;;;;7.97;2.78;;;;;;;20.42;100.00;101842.91;5039814;28;20048;-64
2023/05/27 10:57:02;;;;;;;8.13;1.80;;;;;;;20.76;100.00;101838.84;5037447;28;20028;-59
2023/05/27 10:59:39;;;;;;;10.27;3.03;;;;;;;21.00;99.42;101830.88;5038466;28;20036;-61
2023/05/27 11:02:06;;;;;;;7.80;3.03;;;;;;;21.22;99.21;101826.63;5039327;28;20079;-58
2023/05/27 11:04:37;;;;;;;6.70;2.85;;;;;;;21.16;95.30;101832.13;5039049;28;20060;-59
2023/05/27 11:07:03;;;;;;;;;;;;;;;21.31;91.39;101825.25;5038168;28;20429;-60
2023/05/27 11:09:29;;;;;;;7.88;3.40;;;;;;;20.92;93.63;101840.09;5033500;28;19924;-55
2023/05/27 11:11:55;;;;;;;12.80;3.25;;;;;;;20.68;97.09;101839.97;5039602;28;20775;-56
2023/05/27 11:14:21;;;;;;;7.63;3.95;;;;;;;20.51;95.12;101832.69;5035664;28;20036;-54
2023/05/27 11:16:51;;;;;;;7.50;2.70;;;;;;;20.49;96.12;101830.22;5028887;28;20529;-61
2023/05/27 11:19:17;;;;;;;8.88;3.42;;;;;;;20.82;95.22;101827.16;5040145;28;20048;-56